sensor_id;sensor_type;location;lat;lon;timestamp;P1;durP1;ratioP1;P2;durP2;ratioP2
50012;SDS011;35901;48.694;9.476;2022-09-29T00:00:31;14.17;;;11.33;;
50012;SDS011;35901;48.694;9.476;2022-09-29T00:02:56;12.77;;;9.90;;
50012;SDS011;35901;48.694;9.476;2022-09-29T00:05:22;15.90;;;11.33;;
50012;SDS011;35901;48.694;9.476;2022-09-29T00:07:48;11.33;;;10.10;;
50012;SDS011;35901;48.694;9.476;2022-09-29T00:10:13;16.50;;;11.60;;
50012;SDS011;35901;48.694;9.476;2022-09-29T00:12:39;11.60;;;9.70;;
50012;SDS011;35901;48.694;9.476;2022-09-29T00:15:05;13.23;;;11.53;;
50012;SDS011;35901;48.694;9.476;2022-09-29T00:17:31;11.67;;;9.83;;
50012;SDS011;35901;48.694;9.476;2022-09-29T00:19:57;11.67;;;10.57;;
50012;SDS011;35901;48.694;9.476;2022-09-29T00:22:22;11.77;;;9.73;;
50012;SDS011;35901;48.694;9.476;2022-09-29T00:24:48;12.93;;;9.53;;
50012;SDS011;35901;48.694;9.476;2022-09-29T00:27:14;13.13;;;9.77;;
50012;SDS011;35901;48.694;9.476;2022-09-29T00:29:41;14.00;;;10.67;;
50012;SDS011;35901;48.694;9.476;2022-09-29T00:32:07;10.47;;;9.37;;
50012;SDS011;35901;48.694;9.476;2022-09-29T00:34:32;13.07;;;9.37;;
50012;SDS011;35901;48.694;9.476;2022-09-29T00:36:58;11.63;;;9.90;;
50012;SDS011;35901;48.694;9.476;2022-09-29T00:39:24;8.70;;;7.83;;
50012;SDS011;35901;48.694;9.476;2022-09-29T00:41:49;10.50;;;8.97;;
50012;SDS011;35901;48.694;9.476;2022-09-29T00:46:56;12.70;;;10.53;;
50012;SDS011;35901;48.694;9.476;2022-09-29T00:52:01;11.53;;;9.10;;
50012;SDS011;35901;48.694;9.476;2022-09-29T00:54:31;13.40;;;10.00;;
50012;SDS011;35901;48.694;9.476;2022-09-29T00:57:05;12.47;;;9.53;;
50012;SDS011;35901;48.694;9.476;2022-09-29T00:59:39;9.83;;;8.80;;
50012;SDS011;35901;48.694;9.476;2022-09-29T01:02:19;13.00;;;9.37;;
50012;SDS011;35901;48.694;9.476;2022-09-29T01:04:47;11.13;;;9.47;;
50012;SDS011;35901;48.694;9.476;2022-09-29T01:07:17;12.37;;;10.40;;
50012;SDS011;35901;48.694;9.476;2022-09-29T01:09:45;14.07;;;10.13;;
50012;SDS011;35901;48.694;9.476;2022-09-29T01:12:12;13.67;;;10.07;;
50012;SDS011;35901;48.694;9.476;2022-09-29T01:14:37;10.83;;;9.63;;
50012;SDS011;35901;48.694;9.476;2022-09-29T01:17:04;10.43;;;8.60;;
50012;SDS011;35901;48.694;9.476;2022-09-29T01:25:34;11.40;;;8.93;;
50012;SDS011;35901;48.694;9.476;2022-09-29T01:31:03;11.20;;;9.50;;
50012;SDS011;35901;48.694;9.476;2022-09-29T01:34:01;11.10;;;9.60;;
50012;SDS011;35901;48.694;9.476;2022-09-29T01:39:53;13.37;;;10.60;;
50012;SDS011;35901;48.694;9.476;2022-09-29T01:42:35;12.13;;;10.47;;
50012;SDS011;35901;48.694;9.476;2022-09-29T01:45:38;12.57;;;9.57;;
50012;SDS011;35901;48.694;9.476;2022-09-29T01:48:08;11.17;;;8.47;;
50012;SDS011;35901;48.694;9.476;2022-09-29T01:50:39;11.10;;;9.23;;
50012;SDS011;35901;48.694;9.476;2022-09-29T01:53:11;11.87;;;10.17;;
50012;SDS011;35901;48.694;9.476;2022-09-29T01:55:45;11.60;;;9.90;;
50012;SDS011;35901;48.694;9.476;2022-09-29T01:58:16;13.47;;;9.60;;
50012;SDS011;35901;48.694;9.476;2022-09-29T02:00:49;13.33;;;10.30;;
50012;SDS011;35901;48.694;9.476;2022-09-29T02:05:53;13.90;;;9.83;;
50012;SDS011;35901;48.694;9.476;2022-09-29T02:08:26;12.47;;;10.07;;
50012;SDS011;35901;48.694;9.476;2022-09-29T02:11:01;13.00;;;9.70;;
50012;SDS011;35901;48.694;9.476;2022-09-29T02:13:36;10.60;;;9.50;;
50012;SDS011;35901;48.694;9.476;2022-09-29T02:16:08;11.00;;;9.73;;
50012;SDS011;35901;48.694;9.476;2022-09-29T02:18:54;10.10;;;7.80;;
50012;SDS011;35901;48.694;9.476;2022-09-29T02:21:24;12.47;;;9.70;;
50012;SDS011;35901;48.694;9.476;2022-09-29T02:23:52;11.50;;;9.87;;
50012;SDS011;35901;48.694;9.476;2022-09-29T02:26:18;10.90;;;9.40;;
50012;SDS011;35901;48.694;9.476;2022-09-29T02:28:45;11.77;;;9.27;;
50012;SDS011;35901;48.694;9.476;2022-09-29T02:31:11;9.40;;;8.40;;
50012;SDS011;35901;48.694;9.476;2022-09-29T02:33:38;10.60;;;8.20;;
50012;SDS011;35901;48.694;9.476;2022-09-29T02:39:07;12.20;;;8.93;;
50012;SDS011;35901;48.694;9.476;2022-09-29T02:47:09;12.90;;;8.87;;
50012;SDS011;35901;48.694;9.476;2022-09-29T02:52:18;8.97;;;7.27;;
50012;SDS011;35901;48.694;9.476;2022-09-29T02:54:55;10.03;;;8.23;;
50012;SDS011;35901;48.694;9.476;2022-09-29T02:57:43;9.97;;;7.90;;
50012;SDS011;35901;48.694;9.476;2022-09-29T03:00:22;10.30;;;7.97;;
50012;SDS011;35901;48.694;9.476;2022-09-29T03:02:52;13.17;;;8.37;;
50012;SDS011;35901;48.694;9.476;2022-09-29T03:05:19;11.97;;;8.50;;
50012;SDS011;35901;48.694;9.476;2022-09-29T03:07:46;11.97;;;8.30;;
50012;SDS011;35901;48.694;9.476;2022-09-29T03:10:13;10.17;;;8.70;;
50012;SDS011;35901;48.694;9.476;2022-09-29T03:12:40;8.47;;;7.50;;
50012;SDS011;35901;48.694;9.476;2022-09-29T03:15:06;9.53;;;8.53;;
50012;SDS011;35901;48.694;9.476;2022-09-29T03:17:33;11.87;;;8.23;;
50012;SDS011;35901;48.694;9.476;2022-09-29T03:19:59;11.87;;;8.43;;
50012;SDS011;35901;48.694;9.476;2022-09-29T03:22:24;10.17;;;7.83;;
50012;SDS011;35901;48.694;9.476;2022-09-29T03:24:50;10.83;;;8.70;;
50012;SDS011;35901;48.694;9.476;2022-09-29T03:27:16;12.33;;;9.27;;
50012;SDS011;35901;48.694;9.476;2022-09-29T03:29:42;14.97;;;8.67;;
50012;SDS011;35901;48.694;9.476;2022-09-29T03:32:08;11.00;;;8.40;;
50012;SDS011;35901;48.694;9.476;2022-09-29T03:34:34;11.13;;;9.60;;
50012;SDS011;35901;48.694;9.476;2022-09-29T03:37:00;14.70;;;9.40;;
50012;SDS011;35901;48.694;9.476;2022-09-29T03:39:26;12.77;;;9.80;;
50012;SDS011;35901;48.694;9.476;2022-09-29T03:41:52;13.40;;;9.33;;
50012;SDS011;35901;48.694;9.476;2022-09-29T03:44:18;10.20;;;8.73;;
50012;SDS011;35901;48.694;9.476;2022-09-29T03:46:44;11.37;;;9.20;;
50012;SDS011;35901;48.694;9.476;2022-09-29T03:49:11;11.97;;;9.20;;
50012;SDS011;35901;48.694;9.476;2022-09-29T03:51:37;13.33;;;9.63;;
50012;SDS011;35901;48.694;9.476;2022-09-29T03:54:03;10.80;;;8.07;;
50012;SDS011;35901;48.694;9.476;2022-09-29T03:56:29;13.20;;;9.50;;
50012;SDS011;35901;48.694;9.476;2022-09-29T03:58:55;9.33;;;7.77;;
50012;SDS011;35901;48.694;9.476;2022-09-29T04:01:21;13.07;;;9.50;;
50012;SDS011;35901;48.694;9.476;2022-09-29T04:03:47;11.63;;;9.10;;
50012;SDS011;35901;48.694;9.476;2022-09-29T04:06:13;11.77;;;10.37;;
50012;SDS011;35901;48.694;9.476;2022-09-29T04:08:39;14.83;;;11.73;;
50012;SDS011;35901;48.694;9.476;2022-09-29T04:11:05;13.80;;;10.00;;
50012;SDS011;35901;48.694;9.476;2022-09-29T04:13:31;15.00;;;10.27;;
50012;SDS011;35901;48.694;9.476;2022-09-29T04:16:01;14.47;;;10.67;;
50012;SDS011;35901;48.694;9.476;2022-09-29T04:18:28;11.90;;;10.50;;
50012;SDS011;35901;48.694;9.476;2022-09-29T04:20:55;14.57;;;11.13;;
50012;SDS011;35901;48.694;9.476;2022-09-29T04:23:25;16.47;;;11.30;;
50012;SDS011;35901;48.694;9.476;2022-09-29T04:25:53;14.30;;;10.50;;
50012;SDS011;35901;48.694;9.476;2022-09-29T04:28:20;12.97;;;10.13;;
50012;SDS011;35901;48.694;9.476;2022-09-29T04:30:46;14.47;;;11.03;;
50012;SDS011;35901;48.694;9.476;2022-09-29T04:33:12;12.13;;;10.10;;
50012;SDS011;35901;48.694;9.476;2022-09-29T04:35:38;14.30;;;10.30;;
50012;SDS011;35901;48.694;9.476;2022-09-29T04:38:04;13.50;;;11.33;;
50012;SDS011;35901;48.694;9.476;2022-09-29T04:40:32;16.13;;;12.07;;
50012;SDS011;35901;48.694;9.476;2022-09-29T04:42:58;15.00;;;12.17;;
50012;SDS011;35901;48.694;9.476;2022-09-29T04:45:24;13.87;;;11.37;;
50012;SDS011;35901;48.694;9.476;2022-09-29T04:47:49;14.23;;;11.80;;
50012;SDS011;35901;48.694;9.476;2022-09-29T04:50:15;15.17;;;11.13;;
50012;SDS011;35901;48.694;9.476;2022-09-29T04:52:41;14.10;;;10.53;;
50012;SDS011;35901;48.694;9.476;2022-09-29T04:55:07;10.40;;;8.77;;
50012;SDS011;35901;48.694;9.476;2022-09-29T04:57:35;15.63;;;11.53;;
50012;SDS011;35901;48.694;9.476;2022-09-29T05:00:02;10.17;;;8.50;;
50012;SDS011;35901;48.694;9.476;2022-09-29T05:02:28;11.53;;;9.50;;
50012;SDS011;35901;48.694;9.476;2022-09-29T05:04:54;14.03;;;10.57;;
50012;SDS011;35901;48.694;9.476;2022-09-29T05:07:20;8.77;;;7.87;;
50012;SDS011;35901;48.694;9.476;2022-09-29T05:09:45;13.53;;;9.70;;
50012;SDS011;35901;48.694;9.476;2022-09-29T05:12:11;9.60;;;8.40;;
50012;SDS011;35901;48.694;9.476;2022-09-29T05:14:36;12.03;;;8.43;;
50012;SDS011;35901;48.694;9.476;2022-09-29T05:17:02;12.27;;;9.60;;
50012;SDS011;35901;48.694;9.476;2022-09-29T05:19:28;10.57;;;9.10;;
50012;SDS011;35901;48.694;9.476;2022-09-29T05:21:56;13.63;;;9.87;;
50012;SDS011;35901;48.694;9.476;2022-09-29T05:24:23;11.03;;;9.20;;
50012;SDS011;35901;48.694;9.476;2022-09-29T05:26:49;11.90;;;9.80;;
50012;SDS011;35901;48.694;9.476;2022-09-29T05:29:14;12.27;;;9.77;;
50012;SDS011;35901;48.694;9.476;2022-09-29T05:31:40;9.30;;;8.30;;
50012;SDS011;35901;48.694;9.476;2022-09-29T05:34:06;12.93;;;9.57;;
50012;SDS011;35901;48.694;9.476;2022-09-29T05:36:32;12.07;;;9.50;;
50012;SDS011;35901;48.694;9.476;2022-09-29T05:38:58;11.77;;;10.00;;
50012;SDS011;35901;48.694;9.476;2022-09-29T05:41:23;11.87;;;9.50;;
50012;SDS011;35901;48.694;9.476;2022-09-29T05:43:50;8.67;;;7.83;;
50012;SDS011;35901;48.694;9.476;2022-09-29T05:46:17;11.87;;;8.77;;
50012;SDS011;35901;48.694;9.476;2022-09-29T05:48:47;13.83;;;10.47;;
50012;SDS011;35901;48.694;9.476;2022-09-29T05:51:17;10.17;;;9.17;;
50012;SDS011;35901;48.694;9.476;2022-09-29T05:53:44;12.67;;;10.40;;
50012;SDS011;35901;48.694;9.476;2022-09-29T05:56:11;15.23;;;9.80;;
50012;SDS011;35901;48.694;9.476;2022-09-29T05:58:39;12.20;;;9.40;;
50012;SDS011;35901;48.694;9.476;2022-09-29T06:01:16;12.93;;;9.57;;
50012;SDS011;35901;48.694;9.476;2022-09-29T06:03:44;11.80;;;9.40;;
50012;SDS011;35901;48.694;9.476;2022-09-29T06:06:11;12.17;;;10.50;;
50012;SDS011;35901;48.694;9.476;2022-09-29T06:08:42;12.33;;;9.97;;
50012;SDS011;35901;48.694;9.476;2022-09-29T06:11:09;12.17;;;9.73;;
50012;SDS011;35901;48.694;9.476;2022-09-29T06:13:38;9.37;;;8.47;;
50012;SDS011;35901;48.694;9.476;2022-09-29T06:16:04;16.20;;;12.13;;
50012;SDS011;35901;48.694;9.476;2022-09-29T06:18:30;10.87;;;9.63;;
50012;SDS011;35901;48.694;9.476;2022-09-29T06:21:03;17.83;;;9.97;;
50012;SDS011;35901;48.694;9.476;2022-09-29T06:23:30;10.40;;;9.33;;
50012;SDS011;35901;48.694;9.476;2022-09-29T06:25:57;10.83;;;9.73;;
50012;SDS011;35901;48.694;9.476;2022-09-29T06:28:24;11.40;;;8.93;;
50012;SDS011;35901;48.694;9.476;2022-09-29T06:30:50;11.47;;;8.90;;
50012;SDS011;35901;48.694;9.476;2022-09-29T06:33:16;9.40;;;8.40;;
50012;SDS011;35901;48.694;9.476;2022-09-29T06:35:48;10.47;;;8.30;;
50012;SDS011;35901;48.694;9.476;2022-09-29T06:38:32;8.87;;;7.93;;
50012;SDS011;35901;48.694;9.476;2022-09-29T06:41:19;9.43;;;8.17;;
50012;SDS011;35901;48.694;9.476;2022-09-29T06:43:45;8.90;;;7.60;;
50012;SDS011;35901;48.694;9.476;2022-09-29T06:46:10;7.93;;;6.57;;
50012;SDS011;35901;48.694;9.476;2022-09-29T06:48:36;7.53;;;6.73;;
50012;SDS011;35901;48.694;9.476;2022-09-29T06:51:05;7.87;;;7.00;;
50012;SDS011;35901;48.694;9.476;2022-09-29T06:53:32;8.03;;;6.00;;
50012;SDS011;35901;48.694;9.476;2022-09-29T06:55:57;8.70;;;6.90;;
50012;SDS011;35901;48.694;9.476;2022-09-29T06:58:25;7.50;;;6.80;;
50012;SDS011;35901;48.694;9.476;2022-09-29T07:00:52;7.93;;;6.23;;
50012;SDS011;35901;48.694;9.476;2022-09-29T07:03:19;7.47;;;6.63;;
50012;SDS011;35901;48.694;9.476;2022-09-29T07:05:45;7.40;;;6.70;;
50012;SDS011;35901;48.694;9.476;2022-09-29T07:08:11;7.43;;;6.70;;
50012;SDS011;35901;48.694;9.476;2022-09-29T07:10:37;7.97;;;6.53;;
50012;SDS011;35901;48.694;9.476;2022-09-29T07:13:02;7.00;;;6.17;;
50012;SDS011;35901;48.694;9.476;2022-09-29T07:15:28;6.57;;;5.73;;
50012;SDS011;35901;48.694;9.476;2022-09-29T07:17:58;7.17;;;5.60;;
50012;SDS011;35901;48.694;9.476;2022-09-29T07:20:27;6.93;;;5.43;;
50012;SDS011;35901;48.694;9.476;2022-09-29T07:22:53;5.83;;;5.23;;
50012;SDS011;35901;48.694;9.476;2022-09-29T07:25:19;6.33;;;4.90;;
50012;SDS011;35901;48.694;9.476;2022-09-29T07:27:46;6.70;;;5.03;;
50012;SDS011;35901;48.694;9.476;2022-09-29T07:30:12;5.73;;;5.13;;
50012;SDS011;35901;48.694;9.476;2022-09-29T07:32:38;5.57;;;5.07;;
50012;SDS011;35901;48.694;9.476;2022-09-29T07:35:04;7.90;;;5.17;;
50012;SDS011;35901;48.694;9.476;2022-09-29T07:37:31;5.17;;;4.60;;
50012;SDS011;35901;48.694;9.476;2022-09-29T07:39:56;5.60;;;4.93;;
50012;SDS011;35901;48.694;9.476;2022-09-29T07:42:22;6.00;;;5.10;;
50012;SDS011;35901;48.694;9.476;2022-09-29T07:44:54;7.10;;;5.57;;
50012;SDS011;35901;48.694;9.476;2022-09-29T07:47:20;5.20;;;4.70;;
50012;SDS011;35901;48.694;9.476;2022-09-29T07:49:46;5.57;;;5.03;;
50012;SDS011;35901;48.694;9.476;2022-09-29T07:52:13;5.30;;;4.73;;
50012;SDS011;35901;48.694;9.476;2022-09-29T07:54:39;5.53;;;5.00;;
50012;SDS011;35901;48.694;9.476;2022-09-29T07:57:04;6.47;;;5.20;;
50012;SDS011;35901;48.694;9.476;2022-09-29T07:59:30;7.27;;;5.20;;
50012;SDS011;35901;48.694;9.476;2022-09-29T08:01:56;6.17;;;5.23;;
50012;SDS011;35901;48.694;9.476;2022-09-29T08:04:22;6.17;;;5.20;;
50012;SDS011;35901;48.694;9.476;2022-09-29T08:06:48;5.20;;;4.70;;
50012;SDS011;35901;48.694;9.476;2022-09-29T08:09:14;5.80;;;4.80;;
50012;SDS011;35901;48.694;9.476;2022-09-29T08:11:41;7.53;;;5.40;;
50012;SDS011;35901;48.694;9.476;2022-09-29T08:14:08;5.83;;;5.20;;
50012;SDS011;35901;48.694;9.476;2022-09-29T08:16:35;6.23;;;4.97;;
50012;SDS011;35901;48.694;9.476;2022-09-29T08:19:02;5.57;;;4.63;;
50012;SDS011;35901;48.694;9.476;2022-09-29T08:21:28;4.60;;;4.13;;
50012;SDS011;35901;48.694;9.476;2022-09-29T08:23:56;4.80;;;4.30;;
50012;SDS011;35901;48.694;9.476;2022-09-29T08:26:22;5.00;;;4.47;;
50012;SDS011;35901;48.694;9.476;2022-09-29T08:28:47;4.97;;;4.47;;
50012;SDS011;35901;48.694;9.476;2022-09-29T08:33:40;5.47;;;4.37;;
50012;SDS011;35901;48.694;9.476;2022-09-29T08:36:06;4.10;;;3.80;;
50012;SDS011;35901;48.694;9.476;2022-09-29T08:38:45;4.37;;;3.97;;
50012;SDS011;35901;48.694;9.476;2022-09-29T08:47:17;5.83;;;3.70;;
50012;SDS011;35901;48.694;9.476;2022-09-29T08:49:57;3.60;;;3.30;;
50012;SDS011;35901;48.694;9.476;2022-09-29T08:52:31;3.40;;;3.10;;
50012;SDS011;35901;48.694;9.476;2022-09-29T08:57:54;4.40;;;3.13;;
50012;SDS011;35901;48.694;9.476;2022-09-29T09:00:27;3.00;;;2.80;;
50012;SDS011;35901;48.694;9.476;2022-09-29T09:03:07;4.53;;;3.13;;
50012;SDS011;35901;48.694;9.476;2022-09-29T09:22:22;2.67;;;2.47;;
50012;SDS011;35901;48.694;9.476;2022-09-29T09:27:45;3.90;;;2.30;;
50012;SDS011;35901;48.694;9.476;2022-09-29T09:30:16;2.80;;;2.40;;
50012;SDS011;35901;48.694;9.476;2022-09-29T09:32:48;2.87;;;2.40;;
50012;SDS011;35901;48.694;9.476;2022-09-29T09:38:03;3.67;;;2.40;;
50012;SDS011;35901;48.694;9.476;2022-09-29T09:40:39;2.30;;;2.10;;
50012;SDS011;35901;48.694;9.476;2022-09-29T09:43:30;3.53;;;2.70;;
50012;SDS011;35901;48.694;9.476;2022-09-29T09:46:15;5.07;;;2.60;;
50012;SDS011;35901;48.694;9.476;2022-09-29T09:54:19;2.50;;;1.67;;
50012;SDS011;35901;48.694;9.476;2022-09-29T09:57:06;2.07;;;1.70;;
50012;SDS011;35901;48.694;9.476;2022-09-29T10:02:17;3.20;;;1.60;;
50012;SDS011;35901;48.694;9.476;2022-09-29T10:04:45;2.30;;;1.80;;
50012;SDS011;35901;48.694;9.476;2022-09-29T10:07:14;1.93;;;1.70;;
50012;SDS011;35901;48.694;9.476;2022-09-29T10:09:41;1.93;;;1.30;;
50012;SDS011;35901;48.694;9.476;2022-09-29T10:12:10;2.47;;;1.60;;
50012;SDS011;35901;48.694;9.476;2022-09-29T10:14:47;1.40;;;1.30;;
50012;SDS011;35901;48.694;9.476;2022-09-29T10:17:38;2.03;;;1.40;;
50012;SDS011;35901;48.694;9.476;2022-09-29T10:20:09;2.40;;;1.40;;
50012;SDS011;35901;48.694;9.476;2022-09-29T10:22:36;2.60;;;1.70;;
50012;SDS011;35901;48.694;9.476;2022-09-29T10:27:46;2.70;;;1.87;;
50012;SDS011;35901;48.694;9.476;2022-09-29T10:30:22;1.90;;;1.53;;
50012;SDS011;35901;48.694;9.476;2022-09-29T10:32:56;2.00;;;1.60;;
50012;SDS011;35901;48.694;9.476;2022-09-29T10:35:42;2.50;;;1.70;;
50012;SDS011;35901;48.694;9.476;2022-09-29T10:38:17;2.57;;;1.73;;
50012;SDS011;35901;48.694;9.476;2022-09-29T10:41:00;1.90;;;1.80;;
50012;SDS011;35901;48.694;9.476;2022-09-29T10:46:01;3.33;;;1.67;;
50012;SDS011;35901;48.694;9.476;2022-09-29T10:48:28;5.53;;;2.00;;
50012;SDS011;35901;48.694;9.476;2022-09-29T10:50:58;3.43;;;2.10;;
50012;SDS011;35901;48.694;9.476;2022-09-29T10:55:56;2.47;;;2.10;;
50012;SDS011;35901;48.694;9.476;2022-09-29T10:58:32;2.77;;;2.00;;
50012;SDS011;35901;48.694;9.476;2022-09-29T11:01:08;3.03;;;2.10;;
50012;SDS011;35901;48.694;9.476;2022-09-29T11:03:39;4.23;;;1.97;;
50012;SDS011;35901;48.694;9.476;2022-09-29T11:06:12;2.50;;;1.73;;
50012;SDS011;35901;48.694;9.476;2022-09-29T11:14:25;3.37;;;1.73;;
50012;SDS011;35901;48.694;9.476;2022-09-29T11:16:52;2.57;;;2.10;;
50012;SDS011;35901;48.694;9.476;2022-09-29T11:19:20;3.17;;;1.83;;
50012;SDS011;35901;48.694;9.476;2022-09-29T11:25:02;1.60;;;1.50;;
50012;SDS011;35901;48.694;9.476;2022-09-29T11:27:57;2.20;;;1.77;;
50012;SDS011;35901;48.694;9.476;2022-09-29T11:30:51;2.23;;;1.50;;
50012;SDS011;35901;48.694;9.476;2022-09-29T11:39:17;2.03;;;1.60;;
50012;SDS011;35901;48.694;9.476;2022-09-29T11:44:54;3.27;;;1.53;;
50012;SDS011;35901;48.694;9.476;2022-09-29T11:58:35;2.33;;;1.70;;
50012;SDS011;35901;48.694;9.476;2022-09-29T12:06:55;2.33;;;1.70;;
50012;SDS011;35901;48.694;9.476;2022-09-29T12:15:14;1.97;;;1.50;;
50012;SDS011;35901;48.694;9.476;2022-09-29T12:17:47;2.10;;;1.50;;
50012;SDS011;35901;48.694;9.476;2022-09-29T12:20:21;2.80;;;1.40;;
50012;SDS011;35901;48.694;9.476;2022-09-29T12:22:57;4.00;;;1.70;;
50012;SDS011;35901;48.694;9.476;2022-09-29T12:25:30;2.43;;;1.47;;
50012;SDS011;35901;48.694;9.476;2022-09-29T12:28:22;1.97;;;1.47;;
50012;SDS011;35901;48.694;9.476;2022-09-29T12:30:57;1.90;;;1.33;;
50012;SDS011;35901;48.694;9.476;2022-09-29T12:36:25;2.57;;;1.50;;
50012;SDS011;35901;48.694;9.476;2022-09-29T12:42:02;2.13;;;1.40;;
50012;SDS011;35901;48.694;9.476;2022-09-29T12:53:15;2.60;;;1.33;;
50012;SDS011;35901;48.694;9.476;2022-09-29T12:55:54;1.37;;;1.10;;
50012;SDS011;35901;48.694;9.476;2022-09-29T12:58:55;1.30;;;1.17;;
50012;SDS011;35901;48.694;9.476;2022-09-29T13:01:50;2.43;;;1.53;;
50012;SDS011;35901;48.694;9.476;2022-09-29T13:29:56;1.30;;;1.20;;
50012;SDS011;35901;48.694;9.476;2022-09-29T13:32:57;1.37;;;1.27;;
50012;SDS011;35901;48.694;9.476;2022-09-29T13:35:48;2.87;;;1.27;;
50012;SDS011;35901;48.694;9.476;2022-09-29T13:38:25;1.53;;;1.30;;
50012;SDS011;35901;48.694;9.476;2022-09-29T13:41:10;1.30;;;1.20;;
50012;SDS011;35901;48.694;9.476;2022-09-29T13:46:24;1.23;;;1.07;;
50012;SDS011;35901;48.694;9.476;2022-09-29T13:48:52;2.13;;;1.10;;
50012;SDS011;35901;48.694;9.476;2022-09-29T13:51:45;1.13;;;1.13;;
50012;SDS011;35901;48.694;9.476;2022-09-29T13:54:41;1.30;;;1.20;;
50012;SDS011;35901;48.694;9.476;2022-09-29T14:02:24;2.10;;;1.10;;
50012;SDS011;35901;48.694;9.476;2022-09-29T14:08:34;1.30;;;1.07;;
50012;SDS011;35901;48.694;9.476;2022-09-29T14:10:39;1.00;;;0.90;;
50012;SDS011;35901;48.694;9.476;2022-09-29T14:20:59;0.90;;;0.80;;
50012;SDS011;35901;48.694;9.476;2022-09-29T14:29:11;1.00;;;0.97;;
50012;SDS011;35901;48.694;9.476;2022-09-29T14:31:52;2.30;;;1.10;;
50012;SDS011;35901;48.694;9.476;2022-09-29T14:34:30;1.20;;;1.10;;
50012;SDS011;35901;48.694;9.476;2022-09-29T14:36:58;1.20;;;1.10;;
50012;SDS011;35901;48.694;9.476;2022-09-29T14:39:24;1.63;;;1.23;;
50012;SDS011;35901;48.694;9.476;2022-09-29T14:42:27;3.87;;;1.20;;
50012;SDS011;35901;48.694;9.476;2022-09-29T14:44:59;1.53;;;1.20;;
50012;SDS011;35901;48.694;9.476;2022-09-29T14:47:56;1.57;;;1.00;;
50012;SDS011;35901;48.694;9.476;2022-09-29T14:51:13;1.60;;;1.00;;
50012;SDS011;35901;48.694;9.476;2022-09-29T14:54:24;1.77;;;1.10;;
50012;SDS011;35901;48.694;9.476;2022-09-29T15:00:11;2.17;;;1.20;;
50012;SDS011;35901;48.694;9.476;2022-09-29T15:02:49;1.27;;;1.17;;
50012;SDS011;35901;48.694;9.476;2022-09-29T15:05:27;4.40;;;1.20;;
50012;SDS011;35901;48.694;9.476;2022-09-29T15:07:55;1.67;;;1.27;;
50012;SDS011;35901;48.694;9.476;2022-09-29T15:12:52;1.43;;;1.10;;
50012;SDS011;35901;48.694;9.476;2022-09-29T15:15:38;1.73;;;1.27;;
50012;SDS011;35901;48.694;9.476;2022-09-29T15:18:15;2.40;;;1.20;;
50012;SDS011;35901;48.694;9.476;2022-09-29T15:21:18;2.47;;;1.27;;
50012;SDS011;35901;48.694;9.476;2022-09-29T15:26:24;1.63;;;1.30;;
50012;SDS011;35901;48.694;9.476;2022-09-29T15:28:56;1.10;;;1.10;;
50012;SDS011;35901;48.694;9.476;2022-09-29T15:31:26;1.97;;;1.10;;
50012;SDS011;35901;48.694;9.476;2022-09-29T15:33:55;2.00;;;1.10;;
50012;SDS011;35901;48.694;9.476;2022-09-29T15:36:24;1.50;;;1.37;;
50012;SDS011;35901;48.694;9.476;2022-09-29T15:39:04;1.37;;;1.10;;
50012;SDS011;35901;48.694;9.476;2022-09-29T15:42:01;1.73;;;1.47;;
50012;SDS011;35901;48.694;9.476;2022-09-29T15:44:35;1.77;;;1.60;;
50012;SDS011;35901;48.694;9.476;2022-09-29T15:47:01;2.77;;;1.63;;
50012;SDS011;35901;48.694;9.476;2022-09-29T15:50:02;2.00;;;1.70;;
50012;SDS011;35901;48.694;9.476;2022-09-29T15:52:42;2.87;;;1.60;;
50012;SDS011;35901;48.694;9.476;2022-09-29T15:55:10;2.37;;;1.50;;
50012;SDS011;35901;48.694;9.476;2022-09-29T15:57:47;2.47;;;1.40;;
50012;SDS011;35901;48.694;9.476;2022-09-29T16:02:47;1.43;;;1.30;;
50012;SDS011;35901;48.694;9.476;2022-09-29T16:05:33;1.60;;;1.50;;
50012;SDS011;35901;48.694;9.476;2022-09-29T16:08:03;2.73;;;1.40;;
50012;SDS011;35901;48.694;9.476;2022-09-29T16:10:47;1.40;;;1.30;;
50012;SDS011;35901;48.694;9.476;2022-09-29T16:13:24;1.33;;;1.23;;
50012;SDS011;35901;48.694;9.476;2022-09-29T16:15:56;1.40;;;1.30;;
50012;SDS011;35901;48.694;9.476;2022-09-29T16:18:29;1.30;;;1.20;;
50012;SDS011;35901;48.694;9.476;2022-09-29T16:21:11;3.57;;;1.50;;
50012;SDS011;35901;48.694;9.476;2022-09-29T16:23:43;2.30;;;1.40;;
50012;SDS011;35901;48.694;9.476;2022-09-29T16:26:17;2.23;;;1.57;;
50012;SDS011;35901;48.694;9.476;2022-09-29T16:29:05;4.17;;;2.00;;
50012;SDS011;35901;48.694;9.476;2022-09-29T16:31:35;2.50;;;1.70;;
50012;SDS011;35901;48.694;9.476;2022-09-29T16:34:04;2.07;;;1.87;;
50012;SDS011;35901;48.694;9.476;2022-09-29T16:36:47;2.03;;;1.63;;
50012;SDS011;35901;48.694;9.476;2022-09-29T16:39:14;2.13;;;1.77;;
50012;SDS011;35901;48.694;9.476;2022-09-29T16:41:46;3.13;;;1.57;;
50012;SDS011;35901;48.694;9.476;2022-09-29T16:44:14;2.37;;;1.50;;
50012;SDS011;35901;48.694;9.476;2022-09-29T16:47:03;1.80;;;1.50;;
50012;SDS011;35901;48.694;9.476;2022-09-29T16:49:51;1.90;;;1.40;;
50012;SDS011;35901;48.694;9.476;2022-09-29T16:52:42;1.37;;;1.20;;
50012;SDS011;35901;48.694;9.476;2022-09-29T16:57:59;2.43;;;1.30;;
50012;SDS011;35901;48.694;9.476;2022-09-29T17:00:33;1.80;;;1.20;;
50012;SDS011;35901;48.694;9.476;2022-09-29T17:03:00;2.47;;;1.37;;
50012;SDS011;35901;48.694;9.476;2022-09-29T17:05:34;1.30;;;1.20;;
50012;SDS011;35901;48.694;9.476;2022-09-29T17:08:11;2.30;;;1.53;;
50012;SDS011;35901;48.694;9.476;2022-09-29T17:10:42;3.73;;;1.40;;
50012;SDS011;35901;48.694;9.476;2022-09-29T17:13:11;2.13;;;1.40;;
50012;SDS011;35901;48.694;9.476;2022-09-29T17:15:39;1.63;;;1.37;;
50012;SDS011;35901;48.694;9.476;2022-09-29T17:18:07;2.27;;;1.50;;
50012;SDS011;35901;48.694;9.476;2022-09-29T17:20:36;3.63;;;1.80;;
50012;SDS011;35901;48.694;9.476;2022-09-29T17:23:01;3.70;;;1.70;;
50012;SDS011;35901;48.694;9.476;2022-09-29T17:25:29;2.57;;;1.70;;
50012;SDS011;35901;48.694;9.476;2022-09-29T17:27:55;2.70;;;2.07;;
50012;SDS011;35901;48.694;9.476;2022-09-29T17:30:46;3.03;;;1.90;;
50012;SDS011;35901;48.694;9.476;2022-09-29T17:33:13;1.80;;;1.70;;
50012;SDS011;35901;48.694;9.476;2022-09-29T17:35:48;2.67;;;1.73;;
50012;SDS011;35901;48.694;9.476;2022-09-29T17:38:15;2.17;;;1.70;;
50012;SDS011;35901;48.694;9.476;2022-09-29T17:43:19;2.80;;;2.20;;
50012;SDS011;35901;48.694;9.476;2022-09-29T17:45:47;1.80;;;1.70;;
50012;SDS011;35901;48.694;9.476;2022-09-29T17:48:15;2.97;;;2.57;;
50012;SDS011;35901;48.694;9.476;2022-09-29T17:50:50;4.10;;;2.40;;
50012;SDS011;35901;48.694;9.476;2022-09-29T17:53:19;2.43;;;2.10;;
50012;SDS011;35901;48.694;9.476;2022-09-29T17:55:49;2.23;;;1.93;;
50012;SDS011;35901;48.694;9.476;2022-09-29T17:58:16;2.40;;;2.20;;
50012;SDS011;35901;48.694;9.476;2022-09-29T18:00:44;2.93;;;2.40;;
50012;SDS011;35901;48.694;9.476;2022-09-29T18:03:14;3.07;;;2.77;;
50012;SDS011;35901;48.694;9.476;2022-09-29T18:05:43;2.80;;;2.60;;
50012;SDS011;35901;48.694;9.476;2022-09-29T18:08:20;5.33;;;3.40;;
50012;SDS011;35901;48.694;9.476;2022-09-29T18:13:23;4.40;;;4.00;;
50012;SDS011;35901;48.694;9.476;2022-09-29T18:15:51;4.93;;;4.20;;
50012;SDS011;35901;48.694;9.476;2022-09-29T18:18:18;4.47;;;3.70;;
50012;SDS011;35901;48.694;9.476;2022-09-29T18:20:44;4.67;;;3.73;;
50012;SDS011;35901;48.694;9.476;2022-09-29T18:23:11;5.80;;;5.20;;
50012;SDS011;35901;48.694;9.476;2022-09-29T18:25:39;5.30;;;4.73;;
50012;SDS011;35901;48.694;9.476;2022-09-29T18:28:05;6.60;;;4.33;;
50012;SDS011;35901;48.694;9.476;2022-09-29T18:30:34;6.83;;;4.50;;